Terminal Aerodrome Forecast
Issued by NWS Cleveland, OH

Home | Current Version | Previous Version | Text Only | Print | Product List | Glossary Off
Versions: 1 2 3 4 5 6 7 8 9 10 11 12 13 14 15 16 17 18 19 20 21 22 23 24 25

000
FTUS41 KCLE 020200 AAA
TAFYNG
TAF AMD
KYNG 020256Z 0203/0224 26008KT P6SM SCT012 OVC025
      TEMPO 0203/0206 5SM BR OVC012
     FM020600 27006KT 5SM BR SCT006 OVC012
      TEMPO 0206/0210 6SM BKN006 OVC012
     FM021000 28008KT 6SM BR OVC018
     FM021400 28011KT P6SM OVC025
     FM022000 28008KT P6SM SCT025 OVC045=

USA.gov is the U.S. government's official web portal to all federal, state and local government web resources and services.